Time;durP1;ratioP1;P1;durP2;ratioP2;P2;SDS_P1;SDS_P2;PMS_P1;PMS_P2;Temp;Humidity;BMP_temperature;BMP_pressure;BME280_temperature;BME280_humidity;BME280_pressure;Samples;Min_cycle;Max_cycle;Signal;HPM_P1;HPM_P2
2021/12/03 00:02:01;;;;;;;;;;;;;;;;;;5057937;28;19987;-87
2021/12/03 00:04:28;;;;;;;;;;;;;;;;;;5053446;28;19984;-88
2021/12/03 00:06:55;;;;;;;;;;;;;;;;;;5053950;28;20056;-88
2021/12/03 00:09:22;;;;;;;;;;;;;;;;;;5053710;28;20009;-88
2021/12/03 00:11:49;;;;;;;;;;;;;;;;;;5053896;28;19994;-88
2021/12/03 00:14:16;;;;;;;;;;;;;;;;;;5052894;28;20432;-89
2021/12/03 00:16:43;;;;;;;;;;;;;;;;;;5053645;28;19990;-88
2021/12/03 00:19:10;;;;;;;;;;;;;;;;;;5053235;28;20026;-88
2021/12/03 00:21:38;;;;;;;;;;;;;;;;;;5053714;28;19943;-88
2021/12/03 00:24:05;;;;;;;;;;;;;;;;;;5052749;28;19935;-88
2021/12/03 00:26:32;;;;;;;;;;;;;;;;;;5053818;28;20030;-89
2021/12/03 00:28:59;;;;;;;;;;;;;;;;;;5053445;28;20041;-88
2021/12/03 00:31:26;;;;;;;;;;;;;;;;;;5053592;28;20028;-88
2021/12/03 00:33:53;;;;;;;;;;;;;;;;;;5053095;28;20058;-88
2021/12/03 00:36:20;;;;;;;;;;;;;;;;;;5053286;28;19989;-88
2021/12/03 00:38:52;;;;;;;;;;;;;;;;;;5053103;28;19981;-88
2021/12/03 00:41:20;;;;;;;;;;;;;;;;;;5053297;28;19954;-88
2021/12/03 00:43:48;;;;;;;;;;;;;;;;;;5053231;28;19940;-88
2021/12/03 00:46:16;;;;;;;;;;;;;;;;;;5054223;28;19931;-89
2021/12/03 00:48:43;;;;;;;;;;;;;;;;;;5057461;28;19950;-88
2021/12/03 00:51:10;;;;;;;;;;;;;;;;;;5057302;28;20380;-88
2021/12/03 00:53:38;;;;;;;;;;;;;;;;;;5057009;28;20057;-88
2021/12/03 00:56:05;;;;;;;;;;;;;;;;;;5057435;28;19945;-89
2021/12/03 00:58:32;;;;;;;;;;;;;;;;;;5056725;28;19985;-88
2021/12/03 01:00:59;;;;;;;;;;;;;;;;;;5057185;28;20386;-88
2021/12/03 01:03:26;;;;;;;;;;;;;;;;;;5056794;28;19980;-88
2021/12/03 01:05:54;;;;;;;;;;;;;;;;;;5057186;28;19980;-88
2021/12/03 01:08:21;;;;;;;;;;;;;;;;;;5056196;28;19962;-88
2021/12/03 01:10:48;;;;;;;;;;;;;;;;;;5057107;28;20030;-89
2021/12/03 01:13:15;;;;;;;;;;;;;;;;;;5056504;28;20008;-88
2021/12/03 01:15:42;;;;;;;;;;;;;;;;;;5057013;28;20378;-89
2021/12/03 01:18:09;;;;;;;;;;;;;;;;;;5057020;28;19988;-89
2021/12/03 01:20:36;;;;;;;;;;;;;;;;;;5057068;28;19983;-88
2021/12/03 01:23:03;;;;;;;;;;;;;;;;;;5056482;28;20435;-87
2021/12/03 01:25:31;;;;;;;;;;;;;;;;;;5056659;28;19983;-89
2021/12/03 01:27:59;;;;;;;;;;;;;;;;;;5056736;28;20011;-89
2021/12/03 01:30:26;;;;;;;;;;;;;;;;;;5056313;28;19924;-87
2021/12/03 01:32:53;;;;;;;;;;;;;;;;;;5056496;28;19985;-88
2021/12/03 01:35:20;;;;;;;;;;;;;;;;;;5056543;28;20039;-89
2021/12/03 01:37:47;;;;;;;;;;;;;;;;;;5056587;28;20018;-88
2021/12/03 01:40:14;;;;;;;;;;;;;;;;;;5057486;28;19996;-87
2021/12/03 01:42:44;;;;;;;;;;;;;;;;;;5072309;28;19979;-88
2021/12/03 01:45:11;;;;;;;;;;;;;;;;;;5062216;28;20005;-89
2021/12/03 01:47:38;;;;;;;;;;;;;;;;;;5056234;28;19997;-88
2021/12/03 01:50:05;;;;;;;;;;;;;;;;;;5056344;28;19977;-88
2021/12/03 01:52:32;;;;;;;;;;;;;;;;;;5055638;28;20084;-88
2021/12/03 01:55:01;;;;;;;;;;;;;;;;;;5056053;28;19978;-88
2021/12/03 01:57:28;;;;;;;;;;;;;;;;;;5054800;28;20455;-87
2021/12/03 01:59:55;;;;;;;;;;;;;;;;;;5055732;28;19995;-88
2021/12/03 02:02:22;;;;;;;;;;;;;;;;;;5055023;28;20390;-89
2021/12/03 02:04:49;;;;;;;;;;;;;;;;;;5056072;28;19984;-88
2021/12/03 02:07:16;;;;;;;;;;;;;;;;;;5055349;28;20055;-88
2021/12/03 02:09:43;;;;;;;;;;;;;;;;;;5056007;28;19984;-88
2021/12/03 02:12:10;;;;;;;;;;;;;;;;;;5055543;28;19990;-88
2021/12/03 02:14:37;;;;;;;;;;;;;;;;;;5055866;28;20148;-88
2021/12/03 02:17:04;;;;;;;;;;;;;;;;;;5055489;28;19974;-88
2021/12/03 02:19:31;;;;;;;;;;;;;;;;;;5056061;28;19987;-88
2021/12/03 02:21:58;;;;;;;;;;;;;;;;;;5055153;28;19979;-88
2021/12/03 02:24:25;;;;;;;;;;;;;;;;;;5055236;28;20365;-89
2021/12/03 02:26:52;;;;;;;;;;;;;;;;;;5055353;28;20422;-88
2021/12/03 02:29:19;;;;;;;;;;;;;;;;;;5054858;28;20031;-89
2021/12/03 02:31:46;;;;;;;;;;;;;;;;;;5055375;28;19986;-89
2021/12/03 02:34:13;;;;;;;;;;;;;;;;;;5055310;28;19960;-88
2021/12/03 02:36:41;;;;;;;;;;;;;;;;;;5055452;28;19996;-89
2021/12/03 02:39:08;;;;;;;;;;;;;;;;;;5056037;28;20054;-88
2021/12/03 02:41:35;;;;;;;;;;;;;;;;;;5055765;28;20040;-88
2021/12/03 02:44:02;;;;;;;;;;;;;;;;;;5055639;28;19995;-88
2021/12/03 02:46:29;;;;;;;;;;;;;;;;;;5055445;28;19987;-88
2021/12/03 02:48:56;;;;;;;;;;;;;;;;;;5055398;28;20029;-88
2021/12/03 02:51:23;;;;;;;;;;;;;;;;;;5054985;28;19983;-89
2021/12/03 02:53:50;;;;;;;;;;;;;;;;;;5055273;28;20047;-89
2021/12/03 02:56:17;;;;;;;;;;;;;;;;;;5054195;28;20358;-89
2021/12/03 02:58:44;;;;;;;;;;;;;;;;;;5055069;28;20048;-88
2021/12/03 03:01:11;;;;;;;;;;;;;;;;;;5054480;28;20042;-88
2021/12/03 03:03:38;;;;;;;;;;;;;;;;;;5055645;28;20386;-89
2021/12/03 03:06:06;;;;;;;;;;;;;;;;;;5054766;28;20033;-88
2021/12/03 03:08:33;;;;;;;;;;;;;;;;;;5054908;28;19944;-88
2021/12/03 03:11:02;;;;;;;;;;;;;;;;;;5054557;28;19982;-89
2021/12/03 03:13:29;;;;;;;;;;;;;;;;;;5054599;28;19952;-89
2021/12/03 03:15:56;;;;;;;;;;;;;;;;;;5054174;28;19978;-88
2021/12/03 03:18:23;;;;;;;;;;;;;;;;;;5055061;28;20039;-89
2021/12/03 03:20:50;;;;;;;;;;;;;;;;;;5056102;28;19982;-89
2021/12/03 03:23:17;;;;;;;;;;;;;;;;;;5069181;28;20418;-89
2021/12/03 03:25:44;;;;;;;;;;;;;;;;;;5068087;28;19949;-89
2021/12/03 03:28:11;;;;;;;;;;;;;;;;;;5063423;28;19987;-88
2021/12/03 03:30:38;;;;;;;;;;;;;;;;;;5055076;28;19987;-89
2021/12/03 03:33:05;;;;;;;;;;;;;;;;;;5054758;28;19977;-89
2021/12/03 03:35:32;;;;;;;;;;;;;;;;;;5054411;28;20024;-89
2021/12/03 03:37:59;;;;;;;;;;;;;;;;;;5054285;28;20024;-88
2021/12/03 03:40:26;;;;;;;;;;;;;;;;;;5053862;28;20041;-88
2021/12/03 03:42:53;;;;;;;;;;;;;;;;;;5054598;28;20382;-88
2021/12/03 03:45:20;;;;;;;;;;;;;;;;;;5054043;28;19980;-89
2021/12/03 03:47:47;;;;;;;;;;;;;;;;;;5054132;28;20049;-88
2021/12/03 03:50:14;;;;;;;;;;;;;;;;;;5054472;28;20409;-89
2021/12/03 03:52:41;;;;;;;;;;;;;;;;;;5054421;28;20007;-88
2021/12/03 03:55:08;;;;;;;;;;;;;;;;;;5055213;28;19999;-90
2021/12/03 03:57:35;;;;;;;;;;;;;;;;;;5055288;28;19979;-88
2021/12/03 04:00:02;;;;;;;;;;;;;;;;;;5054043;28;19978;-90
2021/12/03 04:02:30;;;;;;;;;;;;;;;;;;5054624;28;19998;-89
2021/12/03 04:04:57;;;;;;;;;;;;;;;;;;5053880;28;20030;-89
2021/12/03 04:07:24;;;;;;;;;;;;;;;;;;5053389;28;20008;-89
2021/12/03 04:09:51;;;;;;;;;;;;;;;;;;5054194;28;19988;-89
2021/12/03 04:12:18;;;;;;;;;;;;;;;;;;5054271;28;20035;-90
2021/12/03 04:14:45;;;;;;;;;;;;;;;;;;5053698;28;19966;-90
2021/12/03 04:17:12;;;;;;;;;;;;;;;;;;5053611;28;20390;-89
2021/12/03 04:19:39;;;;;;;;;;;;;;;;;;5053467;28;20027;-89
2021/12/03 04:22:06;;;;;;;;;;;;;;;;;;5056434;28;20015;-90
2021/12/03 04:24:33;;;;;;;;;;;;;;;;;;5058277;28;19946;-90
2021/12/03 04:27:00;;;;;;;;;;;;;;;;;;5059379;28;20007;-89
2021/12/03 04:29:27;;;;;;;;;;;;;;;;;;5056376;28;20320;-89
2021/12/03 04:31:54;;;;;;;;;;;;;;;;;;5058504;28;20070;-89
2021/12/03 04:34:21;;;;;;;;;;;;;;;;;;5057642;28;19968;-89
2021/12/03 04:36:49;;;;;;;;;;;;;;;;;;5058143;28;20355;-90
2021/12/03 04:39:16;;;;;;;;;;;;;;;;;;5057991;28;19963;-90
2021/12/03 04:41:43;;;;;;;;;;;;;;;;;;5058519;28;20034;-89
2021/12/03 04:44:10;;;;;;;;;;;;;;;;;;5057758;28;20008;-89
2021/12/03 04:46:37;;;;;;;;;;;;;;;;;;5058175;28;19975;-90
2021/12/03 04:49:04;;;;;;;;;;;;;;;;;;5057636;28;20003;-89
2021/12/03 04:51:31;;;;;;;;;;;;;;;;;;5058176;28;20016;-89
2021/12/03 04:53:58;;;;;;;;;;;;;;;;;;5057430;28;20397;-90
2021/12/03 04:56:25;;;;;;;;;;;;;;;;;;5058029;28;19995;-90
2021/12/03 04:58:52;;;;;;;;;;;;;;;;;;5057602;28;20047;-90
2021/12/03 05:01:19;;;;;;;;;;;;;;;;;;5057586;28;19982;-89
2021/12/03 05:03:46;;;;;;;;;;;;;;;;;;5057930;28;20030;-89
2021/12/03 05:06:16;;;;;;;;;;;;;;;;;;5075348;28;19932;-90
2021/12/03 05:08:43;;;;;;;;;;;;;;;;;;5068578;28;19923;-89
2021/12/03 05:11:10;;;;;;;;;;;;;;;;;;5070703;28;19968;-89
2021/12/03 05:13:37;;;;;;;;;;;;;;;;;;5057735;28;19967;-90
2021/12/03 05:16:04;;;;;;;;;;;;;;;;;;5058232;28;20101;-90
2021/12/03 05:18:31;;;;;;;;;;;;;;;;;;5057729;28;19973;-90
2021/12/03 05:20:58;;;;;;;;;;;;;;;;;;5058205;28;19972;-90
2021/12/03 05:23:26;;;;;;;;;;;;;;;;;;5057872;28;20245;-90
2021/12/03 05:25:53;;;;;;;;;;;;;;;;;;5057659;28;19967;-90
2021/12/03 05:28:20;;;;;;;;;;;;;;;;;;5057674;28;19925;-89
2021/12/03 05:30:47;;;;;;;;;;;;;;;;;;5057619;28;20042;-89
2021/12/03 05:33:14;;;;;;;;;;;;;;;;;;5057186;28;20009;-88
2021/12/03 05:35:41;;;;;;;;;;;;;;;;;;5057541;28;20002;-89
2021/12/03 05:38:08;;;;;;;;;;;;;;;;;;5057717;28;20034;-90
2021/12/03 05:40:35;;;;;;;;;;;;;;;;;;5057890;28;20468;-89
2021/12/03 05:43:02;;;;;;;;;;;;;;;;;;5057768;28;20377;-89
2021/12/03 05:45:29;;;;;;;;;;;;;;;;;;5056968;28;19980;-90
2021/12/03 05:47:56;;;;;;;;;;;;;;;;;;5057454;28;20016;-89
2021/12/03 05:50:23;;;;;;;;;;;;;;;;;;5057907;28;19987;-90
2021/12/03 05:52:50;;;;;;;;;;;;;;;;;;5057678;28;20023;-89
2021/12/03 05:55:17;;;;;;;;;;;;;;;;;;5057780;28;20042;-89
2021/12/03 05:57:44;;;;;;;;;;;;;;;;;;5056544;28;20468;-89
2021/12/03 06:00:11;;;;;;;;;;;;;;;;;;5057347;28;20029;-88
2021/12/03 06:02:38;;;;;;;;;;;;;;;;;;5057726;28;19979;-89
2021/12/03 06:05:05;;;;;;;;;;;;;;;;;;5057409;28;20410;-89
2021/12/03 06:07:32;;;;;;;;;;;;;;;;;;5058068;28;20006;-89
2021/12/03 06:09:59;;;;;;;;;;;;;;;;;;5057135;28;19994;-90
2021/12/03 06:12:26;;;;;;;;;;;;;;;;;;5057603;28;20016;-89
2021/12/03 06:14:53;;;;;;;;;;;;;;;;;;5056899;28;20019;-90
2021/12/03 06:17:20;;;;;;;;;;;;;;;;;;5057574;28;20016;-89
2021/12/03 06:19:47;;;;;;;;;;;;;;;;;;5057405;28;20011;-90
2021/12/03 06:22:14;;;;;;;;;;;;;;;;;;5058495;28;19972;-89
2021/12/03 06:24:41;;;;;;;;;;;;;;;;;;5057123;28;19975;-91
2021/12/03 06:27:08;;;;;;;;;;;;;;;;;;5057526;28;19968;-90
2021/12/03 06:29:35;;;;;;;;;;;;;;;;;;5058415;28;20001;-90
2021/12/03 06:32:09;;;;;;;;;;;;;;;;;;5056977;28;20012;-90
2021/12/03 06:34:36;;;;;;;;;;;;;;;;;;5057130;28;19946;-90
2021/12/03 06:37:03;;;;;;;;;;;;;;;;;;5059400;28;20297;-88
2021/12/03 06:39:30;;;;;;;;;;;;;;;;;;5057470;28;20027;-90
2021/12/03 06:41:57;;;;;;;;;;;;;;;;;;5057838;28;19964;-90
2021/12/03 06:44:25;;;;;;;;;;;;;;;;;;5057798;28;20433;-90
2021/12/03 06:46:53;;;;;;;;;;;;;;;;;;5057683;28;19950;-89
2021/12/03 06:49:20;;;;;;;;;;;;;;;;;;5073707;28;19972;-90
2021/12/03 06:51:48;;;;;;;;;;;;;;;;;;5066767;28;19972;-89
2021/12/03 06:54:24;;;;;;;;;;;;;;;;;;5069280;28;20292;-89
2021/12/03 06:56:52;;;;;;;;;;;;;;;;;;5055798;28;20004;-89
2021/12/03 06:59:19;;;;;;;;;;;;;;;;;;5055537;28;19951;-90
2021/12/03 07:01:46;;;;;;;;;;;;;;;;;;5055491;28;20015;-89
2021/12/03 07:04:13;;;;;;;;;;;;;;;;;;5056525;28;20007;-89
2021/12/03 07:06:40;;;;;;;;;;;;;;;;;;5056848;28;19976;-90
2021/12/03 07:09:07;;;;;;;;;;;;;;;;;;5056407;28;19990;-89
2021/12/03 07:11:34;;;;;;;;;;;;;;;;;;5058165;28;19975;-89
2021/12/03 07:14:01;;;;;;;;;;;;;;;;;;5056510;28;20402;-88
2021/12/03 07:16:28;;;;;;;;;;;;;;;;;;5055539;28;19955;-89
2021/12/03 07:18:55;;;;;;;;;;;;;;;;;;5055687;28;19985;-89
2021/12/03 07:21:22;;;;;;;;;;;;;;;;;;5055304;28;20016;-89
2021/12/03 07:23:51;;;;;;;;;;;;;;;;;;5055587;28;19946;-89
2021/12/03 07:26:18;;;;;;;;;;;;;;;;;;5055391;28;19947;-89
2021/12/03 07:28:45;;;;;;;;;;;;;;;;;;5054955;28;20304;-90
2021/12/03 07:31:12;;;;;;;;;;;;;;;;;;5035207;28;20400;-88
2021/12/03 07:33:39;;;;;;;;;;;;;;;;;;5035174;28;19925;-89
2021/12/03 07:36:06;;;;;;;;;;;;;;;;;;5035910;28;20456;-90
2021/12/03 07:38:33;;;;;;;;;;;;;;;;;;5035830;28;20304;-90
2021/12/03 07:41:01;;;;;;;;;;;;;;;;;;5052839;28;20299;-89
2021/12/03 07:43:28;;;;;;;;;;;;;;;;;;5055645;28;19924;-90
2021/12/03 07:45:55;;;;;;;;;;;;;;;;;;5056471;28;20026;-90
2021/12/03 07:48:23;;;;;;;;;;;;;;;;;;5055750;28;20022;-91
2021/12/03 07:50:50;;;;;;;;;;;;;;;;;;5058948;28;19944;-91
2021/12/03 07:53:22;;;;;;;;;;;;;;;;;;5055576;28;20399;-89
2021/12/03 07:55:49;;;;;;;;;;;;;;;;;;5054981;28;19952;-90
2021/12/03 07:58:16;;;;;;;;;;;;;;;;;;5057693;28;19977;-89
2021/12/03 08:00:44;;;;;;;;;;;;;;;;;;5058572;28;19974;-89
2021/12/03 08:03:11;;;;;;;;;;;;;;;;;;5057932;28;19979;-90
2021/12/03 08:05:38;;;;;;;;;;;;;;;;;;5058826;28;19964;-91
2021/12/03 08:08:05;;;;;;;;;;;;;;;;;;5058462;28;19991;-91
2021/12/03 08:10:34;;;;;;;;;;;;;;;;;;5060233;28;19943;-90
2021/12/03 08:13:01;;;;;;;;;;;;;;;;;;5056730;28;19990;-90
2021/12/03 08:15:28;;;;;;;;;;;;;;;;;;5058165;28;19955;-90
2021/12/03 08:17:55;;;;;;;;;;;;;;;;;;5058857;28;20020;-90
2021/12/03 08:20:22;;;;;;;;;;;;;;;;;;5055234;28;20078;-90
2021/12/03 08:22:49;;;;;;;;;;;;;;;;;;5060259;28;19968;-91
2021/12/03 08:25:16;;;;;;;;;;;;;;;;;;5060640;28;19979;-90
2021/12/03 08:27:44;;;;;;;;;;;;;;;;;;5061483;28;20376;-90
2021/12/03 08:30:13;;;;;;;;;;;;;;;;;;5066197;28;19943;-90
2021/12/03 08:32:41;;;;;;;;;;;;;;;;;;5074204;28;19949;-90
2021/12/03 08:35:08;;;;;;;;;;;;;;;;;;5068438;28;19949;-89
2021/12/03 08:37:35;;;;;;;;;;;;;;;;;;5076147;28;19925;-89
2021/12/03 08:40:02;;;;;;;;;;;;;;;;;;5064870;28;19971;-89
2021/12/03 08:42:29;;;;;;;;;;;;;;;;;;5062169;28;19924;-91
2021/12/03 08:44:58;;;;;;;;;;;;;;;;;;5062076;28;19963;-91
2021/12/03 08:47:25;;;;;;;;;;;;;;;;;;5056373;28;19943;-91
2021/12/03 08:49:54;;;;;;;;;;;;;;;;;;5058457;28;20367;-90
2021/12/03 08:52:52;;;;;;;;;;;;;;;;;;5058939;28;19986;-90
2021/12/03 08:55:18;;;;;;;;;;;;;;;;;;5062322;28;19925;-90
2021/12/03 08:57:45;;;;;;;;;;;;;;;;;;5064099;28;19924;-89
2021/12/03 09:00:12;;;;;;;;;;;;;;;;;;5061062;28;19968;-90
2021/12/03 09:02:39;;;;;;;;;;;;;;;;;;5056999;28;19956;-91
2021/12/03 09:05:07;;;;;;;;;;;;;;;;;;5056343;28;19931;-89
2021/12/03 09:07:34;;;;;;;;;;;;;;;;;;5057644;28;19925;-90
2021/12/03 09:10:01;;;;;;;;;;;;;;;;;;5062860;28;20025;-90
2021/12/03 09:12:28;;;;;;;;;;;;;;;;;;5061420;28;20356;-89
2021/12/03 09:14:57;;;;;;;;;;;;;;;;;;5063249;28;19943;-90
2021/12/03 09:17:35;;;;;;;;;;;;;;;;;;5061748;28;19992;-89
2021/12/03 09:20:06;;;;;;;;;;;;;;;;;;5062001;28;19929;-90
2021/12/03 09:22:38;;;;;;;;;;;;;;;;;;5062091;28;20288;-90
2021/12/03 09:25:05;;;;;;;;;;;;;;;;;;5061141;28;19981;-89
2021/12/03 09:27:33;;;;;;;;;;;;;;;;;;5060895;28;19955;-88
2021/12/03 09:30:00;;;;;;;;;;;;;;;;;;5060825;28;20359;-90
2021/12/03 09:32:30;;;;;;;;;;;;;;;;;;5061367;28;19945;-90
2021/12/03 09:34:57;;;;;;;;;;;;;;;;;;5058968;28;20338;-90
2021/12/03 09:37:24;;;;;;;;;;;;;;;;;;5058472;28;20009;-90
2021/12/03 09:39:51;;;;;;;;;;;;;;;;;;5058952;28;19937;-89
2021/12/03 09:42:20;;;;;;;;;;;;;;;;;;5059045;28;19986;-90
2021/12/03 09:44:47;;;;;;;;;;;;;;;;;;5057301;28;19952;-89
2021/12/03 09:47:14;;;;;;;;;;;;;;;;;;5059100;28;19943;-89
2021/12/03 09:49:42;;;;;;;;;;;;;;;;;;5058031;28;20012;-89
2021/12/03 09:52:16;;;;;;;;;;;;;;;;;;5060818;28;19947;-89
2021/12/03 09:54:44;;;;;;;;;;;;;;;;;;5060072;28;19937;-88
2021/12/03 09:57:12;;;;;;;;;;;;;;;;;;5058186;28;19951;-89
2021/12/03 10:02:43;;;;;;;;;;;;;;;;;;5045580;28;19985;-88
2021/12/03 10:13:36;;;;;;;;;;;;;;;;;;5057311;28;19920;-89
2021/12/03 10:16:07;;;;;;;;;;;;;;;;;;5073174;28;19931;-89
2021/12/03 10:18:39;;;;;;;;;;;;;;;;;;5066089;28;19932;-89
2021/12/03 10:21:14;;;;;;;;;;;;;;;;;;5068042;28;19948;-88
2021/12/03 10:29:33;;;;;;;;;;;;;;;;;;4994464;28;20437;-88
2021/12/03 10:40:48;;;;;;;;;;;;;;;;;;5055847;28;20388;-88
2021/12/03 10:43:22;;;;;;;;;;;;;;;;;;5055694;28;19947;-87
2021/12/03 10:45:59;;;;;;;;;;;;;;;;;;5055290;28;19942;-86
2021/12/03 10:48:33;;;;;;;;;;;;;;;;;;5054471;28;19925;-88
2021/12/03 10:51:08;;;;;;;;;;;;;;;;;;5054701;28;20412;-88
2021/12/03 10:53:45;;;;;;;;;;;;;;;;;;5054683;28;19924;-88
2021/12/03 11:07:41;;;;;;;;;;;;;;;;;;5054503;28;19928;-87
2021/12/03 11:30:11;;;;;;;;;;;;;;;;;;5030792;28;19964;-89
2021/12/03 12:36:50;;;;;;;;;;;;;;;;;;5027504;28;19966;-87
2021/12/03 12:39:51;;;;;;;;;;;;;;;;;;5027794;28;19925;-87
2021/12/03 12:42:57;;;;;;;;;;;;;;;;;;5007973;28;19922;-86
2021/12/03 13:19:19;;;;;;;;;;;;;;;;;;5132376;28;20370;-87
2021/12/03 14:00:45;;;;;;;;;;;;;;;;;;5132043;27;19923;-86
2021/12/03 14:36:59;;;;;;;;;;;;;;;;;;5105370;28;19942;-88
2021/12/03 14:42:24;;;;;;;;;;;;;;;;;;5094713;28;19929;-88
2021/12/03 14:45:03;;;;;;;;;;;;;;;;;;5095652;28;19924;-87
2021/12/03 14:48:05;;;;;;;;;;;;;;;;;;5074061;28;19924;-86
2021/12/03 14:56:07;;;;;;;;;;;;;;;;;;5075630;28;19940;-87
2021/12/03 14:58:45;;;;;;;;;;;;;;;;;;5073540;28;19944;-85
2021/12/03 15:01:18;;;;;;;;;;;;;;;;;;5073973;28;19931;-86
2021/12/03 15:04:05;;;;;;;;;;;;;;;;;;5074295;28;19925;-86
2021/12/03 15:06:35;;;;;;;;;;;;;;;;;;5073885;28;19925;-85
2021/12/03 15:09:08;;;;;;;;;;;;;;;;;;5073908;28;19942;-86
2021/12/03 15:15:01;;;;;;;;;;;;;;;;;;5074865;28;19966;-86
2021/12/03 15:25:38;;;;;;;;;;;;;;;;;;5074372;28;20395;-86
2021/12/03 15:33:44;;;;;;;;;;;;;;;;;;5074784;28;19924;-87
2021/12/03 15:36:14;;;;;;;;;;;;;;;;;;5074967;28;20043;-86
2021/12/03 15:38:52;;;;;;;;;;;;;;;;;;5073985;28;20303;-87
2021/12/03 15:41:47;;;;;;;;;;;;;;;;;;5075126;28;19931;-85
2021/12/03 15:58:23;;;;;;;;;;;;;;;;;;5094841;28;20033;-86
2021/12/03 16:03:51;;;;;;;;;;;;;;;;;;5094711;28;20317;-86
2021/12/03 16:06:29;;;;;;;;;;;;;;;;;;5105695;28;20381;-87
2021/12/03 16:08:59;;;;;;;;;;;;;;;;;;5114779;28;19924;-85
2021/12/03 16:11:39;;;;;;;;;;;;;;;;;;5103523;28;20355;-84
2021/12/03 16:17:20;;;;;;;;;;;;;;;;;;5094591;28;19937;-85
2021/12/03 16:22:44;;;;;;;;;;;;;;;;;;5094251;28;20387;-85
2021/12/03 16:25:23;;;;;;;;;;;;;;;;;;5094293;28;19987;-86
2021/12/03 16:44:35;;;;;;;;;;;;;;;;;;5093594;28;20329;-84
2021/12/03 16:47:10;;;;;;;;;;;;;;;;;;5091653;28;20002;-85
2021/12/03 16:52:38;;;;;;;;;;;;;;;;;;5093078;28;20401;-84
2021/12/03 16:55:05;;;;;;;;;;;;;;;;;;5094201;28;19924;-85
2021/12/03 16:57:34;;;;;;;;;;;;;;;;;;5093424;28;20041;-85
2021/12/03 17:00:12;;;;;;;;;;;;;;;;;;5093202;28;20385;-83
2021/12/03 17:02:43;;;;;;;;;;;;;;;;;;5091012;28;19947;-84
2021/12/03 17:05:26;;;;;;;;;;;;;;;;;;5098739;28;19941;-85
2021/12/03 17:11:15;;;;;;;;;;;;;;;;;;5112036;28;19968;-85
2021/12/03 17:49:32;;;;;;;;;;;;;;;;;;5093250;28;19945;-86
2021/12/03 17:52:14;;;;;;;;;;;;;;;;;;5108375;28;19923;-86
2021/12/03 17:54:57;;;;;;;;;;;;;;;;;;5094495;28;20011;-86
2021/12/03 17:57:31;;;;;;;;;;;;;;;;;;5111445;28;20310;-86
2021/12/03 18:00:00;;;;;;;;;;;;;;;;;;5093090;28;19942;-86
2021/12/03 18:02:35;;;;;;;;;;;;;;;;;;5096135;28;19978;-86
2021/12/03 18:05:13;;;;;;;;;;;;;;;;;;5112559;28;20286;-86
2021/12/03 18:07:50;;;;;;;;;;;;;;;;;;5101530;28;19938;-86
2021/12/03 18:13:19;;;;;;;;;;;;;;;;;;5094945;28;19982;-86
2021/12/03 18:46:44;;;;;;;;;;;;;;;;;;5095202;28;19983;-86
2021/12/03 18:54:38;;;;;;;;;;;;;;;;;;5096078;28;20308;-86
2021/12/03 18:57:10;;;;;;;;;;;;;;;;;;5097382;28;19978;-86
2021/12/03 18:59:40;;;;;;;;;;;;;;;;;;5096162;28;19957;-86
2021/12/03 19:02:09;;;;;;;;;;;;;;;;;;5095973;28;19967;-86
2021/12/03 19:04:43;;;;;;;;;;;;;;;;;;5095264;28;19934;-86
2021/12/03 19:07:13;;;;;;;;;;;;;;;;;;5095699;28;19942;-86
2021/12/03 19:09:43;;;;;;;;;;;;;;;;;;5095034;28;19935;-86
2021/12/03 19:12:14;;;;;;;;;;;;;;;;;;5095719;28;19943;-86
2021/12/03 19:14:48;;;;;;;;;;;;;;;;;;5099224;28;20026;-86
2021/12/03 19:17:15;;;;;;;;;;;;;;;;;;5114552;28;19989;-86
2021/12/03 19:19:44;;;;;;;;;;;;;;;;;;5111627;28;19974;-86
2021/12/03 19:22:11;;;;;;;;;;;;;;;;;;5095645;28;20012;-85
2021/12/03 19:24:37;;;;;;;;;;;;;;;;;;5097927;28;19962;-86
2021/12/03 19:27:04;;;;;;;;;;;;;;;;;;5115863;28;20006;-86
2021/12/03 19:29:31;;;;;;;;;;;;;;;;;;5113779;28;20014;-86
2021/12/03 19:31:58;;;;;;;;;;;;;;;;;;5095151;28;20357;-86
2021/12/03 19:34:25;;;;;;;;;;;;;;;;;;5095307;28;20027;-86
2021/12/03 19:36:52;;;;;;;;;;;;;;;;;;5075179;28;19971;-86
2021/12/03 19:39:19;;;;;;;;;;;;;;;;;;5112560;28;19938;-86
2021/12/03 19:41:49;;;;;;;;;;;;;;;;;;5115503;28;19949;-86
2021/12/03 19:44:18;;;;;;;;;;;;;;;;;;5096975;28;19939;-86
2021/12/03 19:46:47;;;;;;;;;;;;;;;;;;5094782;28;19949;-86
2021/12/03 19:49:18;;;;;;;;;;;;;;;;;;5111676;28;19935;-86
2021/12/03 19:51:48;;;;;;;;;;;;;;;;;;5115426;28;19931;-87
2021/12/03 19:54:15;;;;;;;;;;;;;;;;;;5098181;28;19940;-86
2021/12/03 19:56:42;;;;;;;;;;;;;;;;;;5094722;28;20003;-86
2021/12/03 19:59:09;;;;;;;;;;;;;;;;;;5109117;28;19982;-86
2021/12/03 20:01:36;;;;;;;;;;;;;;;;;;5115028;28;20033;-87
2021/12/03 20:04:03;;;;;;;;;;;;;;;;;;5100774;28;20349;-86
2021/12/03 20:06:30;;;;;;;;;;;;;;;;;;5104045;28;19924;-86
2021/12/03 20:08:59;;;;;;;;;;;;;;;;;;5115041;28;20014;-85
2021/12/03 20:11:27;;;;;;;;;;;;;;;;;;5113184;28;19931;-86
2021/12/03 20:13:59;;;;;;;;;;;;;;;;;;5114498;28;20529;-86
2021/12/03 20:16:29;;;;;;;;;;;;;;;;;;5106455;28;19924;-86
2021/12/03 20:19:00;;;;;;;;;;;;;;;;;;5094407;28;20029;-85
2021/12/03 20:21:28;;;;;;;;;;;;;;;;;;5101373;28;19987;-86
2021/12/03 20:24:06;;;;;;;;;;;;;;;;;;5114100;28;19949;-86
2021/12/03 20:26:45;;;;;;;;;;;;;;;;;;5106880;28;19957;-85
2021/12/03 20:29:17;;;;;;;;;;;;;;;;;;5094426;28;20014;-86
2021/12/03 20:31:46;;;;;;;;;;;;;;;;;;5102159;28;20006;-85
2021/12/03 20:34:30;;;;;;;;;;;;;;;;;;5114504;28;20028;-86
2021/12/03 20:36:59;;;;;;;;;;;;;;;;;;5105766;28;20308;-86
2021/12/03 20:39:32;;;;;;;;;;;;;;;;;;5094789;28;19971;-86
2021/12/03 20:42:04;;;;;;;;;;;;;;;;;;5096473;28;19999;-86
2021/12/03 20:50:12;;;;;;;;;;;;;;;;;;5114282;28;19934;-86
2021/12/03 20:52:44;;;;;;;;;;;;;;;;;;5113344;28;19923;-86
2021/12/03 21:08:58;;;;;;;;;;;;;;;;;;5073503;28;19959;-86
2021/12/03 21:11:28;;;;;;;;;;;;;;;;;;5073593;28;20020;-85
2021/12/03 21:13:59;;;;;;;;;;;;;;;;;;5092371;28;20288;-86
2021/12/03 21:16:44;;;;;;;;;;;;;;;;;;5093419;28;20476;-85
2021/12/03 21:19:27;;;;;;;;;;;;;;;;;;5114132;28;19924;-87
2021/12/03 21:21:57;;;;;;;;;;;;;;;;;;5110934;28;19961;-86
2021/12/03 21:24:31;;;;;;;;;;;;;;;;;;5093468;28;19981;-86
2021/12/03 21:26:59;;;;;;;;;;;;;;;;;;5094684;28;19932;-86
2021/12/03 21:29:35;;;;;;;;;;;;;;;;;;5093635;28;19943;-86
2021/12/03 21:32:12;;;;;;;;;;;;;;;;;;5095437;28;19944;-86
2021/12/03 21:40:14;;;;;;;;;;;;;;;;;;5097494;28;20382;-86
2021/12/03 21:42:41;;;;;;;;;;;;;;;;;;5103614;28;19969;-86
2021/12/03 21:45:08;;;;;;;;;;;;;;;;;;5117841;28;19959;-86
2021/12/03 21:47:35;;;;;;;;;;;;;;;;;;5112114;28;20022;-86
2021/12/03 21:50:02;;;;;;;;;;;;;;;;;;5097195;28;20424;-87
2021/12/03 21:52:29;;;;;;;;;;;;;;;;;;5098235;28;19969;-87
2021/12/03 21:54:56;;;;;;;;;;;;;;;;;;5097214;28;19986;-86
2021/12/03 21:57:26;;;;;;;;;;;;;;;;;;5098612;28;19985;-87
2021/12/03 21:59:53;;;;;;;;;;;;;;;;;;5117510;28;19924;-86
2021/12/03 22:02:20;;;;;;;;;;;;;;;;;;5099715;28;20019;-86
2021/12/03 22:04:47;;;;;;;;;;;;;;;;;;5100330;28;19930;-86
2021/12/03 22:07:14;;;;;;;;;;;;;;;;;;5117515;28;20023;-86
2021/12/03 22:09:41;;;;;;;;;;;;;;;;;;5114149;28;20461;-87
2021/12/03 22:12:08;;;;;;;;;;;;;;;;;;5096939;28;20007;-86
2021/12/03 22:14:36;;;;;;;;;;;;;;;;;;5103932;28;20052;-86
2021/12/03 22:17:03;;;;;;;;;;;;;;;;;;5117120;28;19924;-87
2021/12/03 22:19:30;;;;;;;;;;;;;;;;;;5110863;28;20052;-88
2021/12/03 22:21:57;;;;;;;;;;;;;;;;;;5098046;28;19924;-88
2021/12/03 22:24:24;;;;;;;;;;;;;;;;;;5104130;28;20014;-87
2021/12/03 22:26:51;;;;;;;;;;;;;;;;;;5117049;28;20018;-87
2021/12/03 22:29:18;;;;;;;;;;;;;;;;;;5112531;28;20445;-86
2021/12/03 22:31:45;;;;;;;;;;;;;;;;;;5096730;28;20331;-87
2021/12/03 22:34:12;;;;;;;;;;;;;;;;;;5098491;28;20028;-86
2021/12/03 22:36:39;;;;;;;;;;;;;;;;;;5116820;28;20049;-87
2021/12/03 22:39:06;;;;;;;;;;;;;;;;;;5115683;28;19963;-87
2021/12/03 22:41:35;;;;;;;;;;;;;;;;;;5096192;28;19977;-86
2021/12/03 22:44:02;;;;;;;;;;;;;;;;;;5096297;28;19928;-86
2021/12/03 22:46:40;;;;;;;;;;;;;;;;;;5115511;28;20011;-87
2021/12/03 22:49:32;;;;;;;;;;;;;;;;;;5116671;28;19989;-87
2021/12/03 22:52:05;;;;;;;;;;;;;;;;;;5096140;28;19945;-87
2021/12/03 22:54:37;;;;;;;;;;;;;;;;;;5098274;28;19950;-88
2021/12/03 22:57:04;;;;;;;;;;;;;;;;;;5116557;28;19931;-87
2021/12/03 22:59:31;;;;;;;;;;;;;;;;;;5114973;28;19965;-86
2021/12/03 23:01:58;;;;;;;;;;;;;;;;;;5111449;28;20011;-86
2021/12/03 23:04:25;;;;;;;;;;;;;;;;;;5116046;28;20041;-86
2021/12/03 23:06:52;;;;;;;;;;;;;;;;;;5076398;28;20019;-86
2021/12/03 23:09:19;;;;;;;;;;;;;;;;;;5075373;28;20012;-86
2021/12/03 23:11:46;;;;;;;;;;;;;;;;;;5113771;28;19998;-86
2021/12/03 23:14:13;;;;;;;;;;;;;;;;;;5115945;28;20080;-86
2021/12/03 23:16:40;;;;;;;;;;;;;;;;;;5098021;28;20432;-86
2021/12/03 23:19:07;;;;;;;;;;;;;;;;;;5095642;28;19955;-86
2021/12/03 23:21:34;;;;;;;;;;;;;;;;;;5111317;28;20010;-87
2021/12/03 23:24:01;;;;;;;;;;;;;;;;;;5116263;28;20019;-86
2021/12/03 23:26:28;;;;;;;;;;;;;;;;;;5102172;28;20090;-87
2021/12/03 23:28:55;;;;;;;;;;;;;;;;;;5095730;28;20374;-86
2021/12/03 23:31:22;;;;;;;;;;;;;;;;;;5107925;28;19985;-87
2021/12/03 23:33:49;;;;;;;;;;;;;;;;;;5113387;28;19980;-86
2021/12/03 23:36:16;;;;;;;;;;;;;;;;;;5115769;28;19969;-86
2021/12/03 23:38:43;;;;;;;;;;;;;;;;;;5115711;28;19943;-86